sensor_id;sensor_type;location;lat;lon;timestamp;pressure;altitude;pressure_sealevel;temperature;humidity
50434;BME280;36361;38.954;-9.002;2023-12-20T00:00:39;102300.59;;;13.09;100.00
50434;BME280;36361;38.954;-9.002;2023-12-20T00:01:39;102300.56;;;13.24;100.00
50434;BME280;36361;38.954;-9.002;2023-12-20T00:02:40;102298.50;;;13.48;100.00
50434;BME280;36361;38.954;-9.002;2023-12-20T00:03:45;102301.44;;;13.46;100.00
50434;BME280;36361;38.954;-9.002;2023-12-20T00:04:46;102297.19;;;13.22;100.00
50434;BME280;36361;38.954;-9.002;2023-12-20T00:05:47;102301.56;;;13.38;100.00
50434;BME280;36361;38.954;-9.002;2023-12-20T00:06:48;102290.03;;;13.43;100.00
50434;BME280;36361;38.954;-9.002;2023-12-20T00:07:49;102297.19;;;13.44;100.00
50434;BME280;36361;38.954;-9.002;2023-12-20T00:08:50;102303.81;;;13.34;100.00
50434;BME280;36361;38.954;-9.002;2023-12-20T00:09:51;102297.56;;;13.04;100.00
50434;BME280;36361;38.954;-9.002;2023-12-20T00:10:51;102307.13;;;12.94;100.00
50434;BME280;36361;38.954;-9.002;2023-12-20T00:11:52;102309.41;;;12.75;100.00
50434;BME280;36361;38.954;-9.002;2023-12-20T00:12:53;102308.28;;;12.70;100.00
50434;BME280;36361;38.954;-9.002;2023-12-20T00:13:54;102304.63;;;12.48;100.00
50434;BME280;36361;38.954;-9.002;2023-12-20T00:14:55;102304.13;;;12.30;100.00
50434;BME280;36361;38.954;-9.002;2023-12-20T00:15:55;102305.19;;;12.29;100.00
50434;BME280;36361;38.954;-9.002;2023-12-20T00:16:56;102306.00;;;12.14;100.00
50434;BME280;36361;38.954;-9.002;2023-12-20T00:17:57;102302.41;;;11.99;100.00
50434;BME280;36361;38.954;-9.002;2023-12-20T00:18:58;102309.44;;;11.93;100.00
50434;BME280;36361;38.954;-9.002;2023-12-20T00:19:58;102305.91;;;12.08;100.00
50434;BME280;36361;38.954;-9.002;2023-12-20T00:20:59;102292.84;;;12.18;100.00
50434;BME280;36361;38.954;-9.002;2023-12-20T00:22:00;102297.84;;;12.29;100.00
50434;BME280;36361;38.954;-9.002;2023-12-20T00:23:01;102305.41;;;12.04;100.00
50434;BME280;36361;38.954;-9.002;2023-12-20T00:24:03;102302.53;;;12.20;100.00
50434;BME280;36361;38.954;-9.002;2023-12-20T00:25:04;102298.28;;;12.33;100.00
50434;BME280;36361;38.954;-9.002;2023-12-20T00:26:05;102298.97;;;12.49;100.00
50434;BME280;36361;38.954;-9.002;2023-12-20T00:27:06;102290.38;;;12.52;100.00
50434;BME280;36361;38.954;-9.002;2023-12-20T00:28:06;102303.47;;;12.42;100.00
50434;BME280;36361;38.954;-9.002;2023-12-20T00:29:07;102290.00;;;12.41;100.00
50434;BME280;36361;38.954;-9.002;2023-12-20T00:30:09;102296.31;;;12.41;100.00
50434;BME280;36361;38.954;-9.002;2023-12-20T00:31:10;102282.13;;;12.46;100.00
50434;BME280;36361;38.954;-9.002;2023-12-20T00:32:10;102279.38;;;12.46;100.00
50434;BME280;36361;38.954;-9.002;2023-12-20T00:33:11;102294.34;;;12.50;100.00
50434;BME280;36361;38.954;-9.002;2023-12-20T00:34:12;102281.94;;;12.62;100.00
50434;BME280;36361;38.954;-9.002;2023-12-20T00:35:13;102290.38;;;12.67;100.00
50434;BME280;36361;38.954;-9.002;2023-12-20T00:36:14;102281.69;;;12.78;100.00
50434;BME280;36361;38.954;-9.002;2023-12-20T00:37:15;102282.28;;;12.74;100.00
50434;BME280;36361;38.954;-9.002;2023-12-20T00:38:16;102287.69;;;12.89;100.00
50434;BME280;36361;38.954;-9.002;2023-12-20T00:39:17;102285.78;;;13.04;100.00
50434;BME280;36361;38.954;-9.002;2023-12-20T00:40:18;102285.19;;;13.23;100.00
50434;BME280;36361;38.954;-9.002;2023-12-20T00:41:19;102287.03;;;13.37;100.00
50434;BME280;36361;38.954;-9.002;2023-12-20T00:42:20;102287.16;;;13.29;100.00
50434;BME280;36361;38.954;-9.002;2023-12-20T00:43:20;102290.31;;;13.48;100.00
50434;BME280;36361;38.954;-9.002;2023-12-20T00:44:21;102285.34;;;13.36;100.00
50434;BME280;36361;38.954;-9.002;2023-12-20T00:45:22;102283.59;;;13.50;100.00
50434;BME280;36361;38.954;-9.002;2023-12-20T00:46:23;102284.19;;;13.46;100.00
50434;BME280;36361;38.954;-9.002;2023-12-20T00:47:23;102280.25;;;13.76;100.00
50434;BME280;36361;38.954;-9.002;2023-12-20T00:48:24;102290.63;;;13.59;100.00
50434;BME280;36361;38.954;-9.002;2023-12-20T00:49:27;102277.88;;;13.94;100.00
50434;BME280;36361;38.954;-9.002;2023-12-20T00:50:28;102286.22;;;13.86;100.00
50434;BME280;36361;38.954;-9.002;2023-12-20T00:51:28;102275.97;;;13.67;100.00
50434;BME280;36361;38.954;-9.002;2023-12-20T00:52:29;102273.13;;;13.54;100.00
50434;BME280;36361;38.954;-9.002;2023-12-20T00:53:30;102268.81;;;13.45;100.00
50434;BME280;36361;38.954;-9.002;2023-12-20T00:54:31;102266.81;;;13.17;100.00
50434;BME280;36361;38.954;-9.002;2023-12-20T00:55:31;102265.41;;;13.21;100.00
50434;BME280;36361;38.954;-9.002;2023-12-20T00:56:32;102267.25;;;13.35;100.00
50434;BME280;36361;38.954;-9.002;2023-12-20T00:57:33;102272.31;;;13.38;100.00
50434;BME280;36361;38.954;-9.002;2023-12-20T00:58:34;102268.53;;;13.40;100.00
50434;BME280;36361;38.954;-9.002;2023-12-20T00:59:35;102278.72;;;13.46;100.00
50434;BME280;36361;38.954;-9.002;2023-12-20T01:00:36;102265.16;;;13.37;100.00
50434;BME280;36361;38.954;-9.002;2023-12-20T01:01:37;102263.72;;;13.20;100.00
50434;BME280;36361;38.954;-9.002;2023-12-20T01:02:39;102269.31;;;13.33;100.00
50434;BME280;36361;38.954;-9.002;2023-12-20T01:03:39;102270.47;;;13.24;100.00
50434;BME280;36361;38.954;-9.002;2023-12-20T01:04:40;102262.69;;;13.21;100.00
50434;BME280;36361;38.954;-9.002;2023-12-20T01:05:41;102263.94;;;13.04;100.00
50434;BME280;36361;38.954;-9.002;2023-12-20T01:06:42;102263.03;;;13.18;100.00
50434;BME280;36361;38.954;-9.002;2023-12-20T01:07:42;102273.13;;;13.18;100.00
50434;BME280;36361;38.954;-9.002;2023-12-20T01:08:43;102262.13;;;13.26;100.00
50434;BME280;36361;38.954;-9.002;2023-12-20T01:09:44;102266.84;;;13.38;100.00
50434;BME280;36361;38.954;-9.002;2023-12-20T01:10:44;102267.09;;;13.44;100.00
50434;BME280;36361;38.954;-9.002;2023-12-20T01:11:47;102269.97;;;13.57;100.00
50434;BME280;36361;38.954;-9.002;2023-12-20T01:12:48;102271.00;;;13.77;100.00
50434;BME280;36361;38.954;-9.002;2023-12-20T01:13:48;102260.94;;;13.84;100.00
50434;BME280;36361;38.954;-9.002;2023-12-20T01:14:49;102261.50;;;13.52;100.00
50434;BME280;36361;38.954;-9.002;2023-12-20T01:15:50;102268.44;;;13.26;100.00
50434;BME280;36361;38.954;-9.002;2023-12-20T01:16:50;102268.03;;;13.29;100.00
50434;BME280;36361;38.954;-9.002;2023-12-20T01:17:51;102263.41;;;13.15;100.00
50434;BME280;36361;38.954;-9.002;2023-12-20T01:18:52;102262.31;;;13.09;100.00
50434;BME280;36361;38.954;-9.002;2023-12-20T01:19:53;102264.13;;;13.02;100.00
50434;BME280;36361;38.954;-9.002;2023-12-20T01:20:54;102260.03;;;13.13;100.00
50434;BME280;36361;38.954;-9.002;2023-12-20T01:21:55;102263.31;;;13.23;100.00
50434;BME280;36361;38.954;-9.002;2023-12-20T01:22:56;102266.34;;;13.14;100.00
50434;BME280;36361;38.954;-9.002;2023-12-20T01:23:56;102267.97;;;13.08;100.00
50434;BME280;36361;38.954;-9.002;2023-12-20T01:24:57;102266.53;;;13.12;100.00
50434;BME280;36361;38.954;-9.002;2023-12-20T01:25:58;102255.41;;;13.14;100.00
50434;BME280;36361;38.954;-9.002;2023-12-20T01:27:03;102266.94;;;13.09;100.00
50434;BME280;36361;38.954;-9.002;2023-12-20T01:28:04;102263.53;;;13.07;100.00
50434;BME280;36361;38.954;-9.002;2023-12-20T01:29:05;102258.22;;;12.99;100.00
50434;BME280;36361;38.954;-9.002;2023-12-20T01:30:06;102257.94;;;12.94;100.00
50434;BME280;36361;38.954;-9.002;2023-12-20T01:31:08;102267.16;;;12.93;100.00
50434;BME280;36361;38.954;-9.002;2023-12-20T01:32:08;102261.59;;;13.01;100.00
50434;BME280;36361;38.954;-9.002;2023-12-20T01:33:09;102259.91;;;13.00;100.00
50434;BME280;36361;38.954;-9.002;2023-12-20T01:34:10;102264.00;;;13.10;100.00
50434;BME280;36361;38.954;-9.002;2023-12-20T01:35:11;102264.47;;;13.14;100.00
50434;BME280;36361;38.954;-9.002;2023-12-20T01:36:13;102267.19;;;13.14;100.00
50434;BME280;36361;38.954;-9.002;2023-12-20T01:37:14;102265.78;;;13.18;100.00
50434;BME280;36361;38.954;-9.002;2023-12-20T01:38:15;102264.38;;;13.44;100.00
50434;BME280;36361;38.954;-9.002;2023-12-20T01:39:19;102270.31;;;13.47;100.00
50434;BME280;36361;38.954;-9.002;2023-12-20T01:40:19;102269.19;;;13.63;100.00
50434;BME280;36361;38.954;-9.002;2023-12-20T01:41:20;102268.34;;;13.62;100.00
50434;BME280;36361;38.954;-9.002;2023-12-20T01:42:21;102271.53;;;13.66;100.00
50434;BME280;36361;38.954;-9.002;2023-12-20T01:43:22;102255.75;;;13.68;100.00
50434;BME280;36361;38.954;-9.002;2023-12-20T01:44:23;102265.38;;;13.85;100.00
50434;BME280;36361;38.954;-9.002;2023-12-20T01:45:24;102269.66;;;13.66;100.00
50434;BME280;36361;38.954;-9.002;2023-12-20T01:46:25;102271.13;;;13.69;100.00
50434;BME280;36361;38.954;-9.002;2023-12-20T01:47:26;102264.94;;;13.82;100.00
50434;BME280;36361;38.954;-9.002;2023-12-20T01:48:27;102259.47;;;14.10;100.00
50434;BME280;36361;38.954;-9.002;2023-12-20T01:49:28;102256.75;;;13.88;100.00
50434;BME280;36361;38.954;-9.002;2023-12-20T01:50:30;102258.47;;;14.17;100.00
50434;BME280;36361;38.954;-9.002;2023-12-20T01:51:32;102260.44;;;14.30;100.00
50434;BME280;36361;38.954;-9.002;2023-12-20T01:52:34;102254.53;;;14.33;100.00
50434;BME280;36361;38.954;-9.002;2023-12-20T01:53:35;102255.84;;;14.37;100.00
50434;BME280;36361;38.954;-9.002;2023-12-20T01:54:36;102264.13;;;14.16;100.00
50434;BME280;36361;38.954;-9.002;2023-12-20T01:55:39;102254.00;;;14.10;100.00
50434;BME280;36361;38.954;-9.002;2023-12-20T01:56:40;102254.00;;;14.10;100.00
50434;BME280;36361;38.954;-9.002;2023-12-20T01:57:41;102253.22;;;14.22;100.00
50434;BME280;36361;38.954;-9.002;2023-12-20T01:58:46;102245.03;;;14.29;100.00
50434;BME280;36361;38.954;-9.002;2023-12-20T01:59:48;102245.63;;;14.24;100.00
50434;BME280;36361;38.954;-9.002;2023-12-20T02:00:49;102244.78;;;14.24;100.00
50434;BME280;36361;38.954;-9.002;2023-12-20T02:01:50;102253.69;;;14.33;100.00
50434;BME280;36361;38.954;-9.002;2023-12-20T02:02:53;102243.84;;;14.38;100.00
50434;BME280;36361;38.954;-9.002;2023-12-20T02:03:55;102254.25;;;14.49;100.00
50434;BME280;36361;38.954;-9.002;2023-12-20T02:04:56;102241.59;;;14.48;100.00
50434;BME280;36361;38.954;-9.002;2023-12-20T02:05:57;102257.91;;;14.35;100.00
50434;BME280;36361;38.954;-9.002;2023-12-20T02:06:59;102237.38;;;14.52;100.00
50434;BME280;36361;38.954;-9.002;2023-12-20T02:08:00;102240.25;;;14.44;100.00
50434;BME280;36361;38.954;-9.002;2023-12-20T02:09:01;102243.28;;;14.49;100.00
50434;BME280;36361;38.954;-9.002;2023-12-20T02:10:02;102241.19;;;14.51;100.00
50434;BME280;36361;38.954;-9.002;2023-12-20T02:11:04;102248.38;;;14.59;100.00
50434;BME280;36361;38.954;-9.002;2023-12-20T02:12:05;102240.63;;;14.28;100.00
50434;BME280;36361;38.954;-9.002;2023-12-20T02:13:06;102242.53;;;14.28;100.00
50434;BME280;36361;38.954;-9.002;2023-12-20T02:14:07;102233.03;;;14.30;100.00
50434;BME280;36361;38.954;-9.002;2023-12-20T02:15:08;102235.38;;;14.33;100.00
50434;BME280;36361;38.954;-9.002;2023-12-20T02:16:09;102233.84;;;14.24;100.00
50434;BME280;36361;38.954;-9.002;2023-12-20T02:17:10;102239.41;;;14.37;100.00
50434;BME280;36361;38.954;-9.002;2023-12-20T02:18:11;102236.88;;;14.36;100.00
50434;BME280;36361;38.954;-9.002;2023-12-20T02:19:17;102233.47;;;14.27;100.00
50434;BME280;36361;38.954;-9.002;2023-12-20T02:20:19;102239.72;;;14.21;100.00
50434;BME280;36361;38.954;-9.002;2023-12-20T02:21:25;102232.56;;;14.20;100.00
50434;BME280;36361;38.954;-9.002;2023-12-20T02:22:26;102223.56;;;14.33;100.00
50434;BME280;36361;38.954;-9.002;2023-12-20T02:23:26;102228.25;;;14.39;100.00
50434;BME280;36361;38.954;-9.002;2023-12-20T02:24:27;102218.94;;;14.33;100.00
50434;BME280;36361;38.954;-9.002;2023-12-20T02:25:28;102221.19;;;14.23;100.00
50434;BME280;36361;38.954;-9.002;2023-12-20T02:26:29;102217.81;;;14.21;100.00
50434;BME280;36361;38.954;-9.002;2023-12-20T02:27:29;102216.13;;;14.20;100.00
50434;BME280;36361;38.954;-9.002;2023-12-20T02:28:31;102207.59;;;14.02;100.00
50434;BME280;36361;38.954;-9.002;2023-12-20T02:29:33;102220.47;;;14.08;100.00
50434;BME280;36361;38.954;-9.002;2023-12-20T02:30:34;102219.34;;;13.95;100.00
50434;BME280;36361;38.954;-9.002;2023-12-20T02:31:35;102231.53;;;13.93;100.00
50434;BME280;36361;38.954;-9.002;2023-12-20T02:32:35;102222.88;;;13.89;100.00
50434;BME280;36361;38.954;-9.002;2023-12-20T02:33:36;102229.09;;;14.05;100.00
50434;BME280;36361;38.954;-9.002;2023-12-20T02:34:37;102230.78;;;14.06;100.00
50434;BME280;36361;38.954;-9.002;2023-12-20T02:35:38;102223.13;;;13.94;100.00
50434;BME280;36361;38.954;-9.002;2023-12-20T02:36:39;102220.13;;;13.89;100.00
50434;BME280;36361;38.954;-9.002;2023-12-20T02:37:39;102222.44;;;13.58;100.00
50434;BME280;36361;38.954;-9.002;2023-12-20T02:38:40;102220.81;;;13.63;100.00
50434;BME280;36361;38.954;-9.002;2023-12-20T02:39:41;102205.59;;;13.61;100.00
50434;BME280;36361;38.954;-9.002;2023-12-20T02:40:42;102222.88;;;13.61;100.00
50434;BME280;36361;38.954;-9.002;2023-12-20T02:41:43;102227.50;;;13.61;100.00
50434;BME280;36361;38.954;-9.002;2023-12-20T02:42:43;102226.78;;;13.74;100.00
50434;BME280;36361;38.954;-9.002;2023-12-20T02:43:45;102228.16;;;13.63;100.00
50434;BME280;36361;38.954;-9.002;2023-12-20T02:44:45;102224.63;;;13.69;100.00
50434;BME280;36361;38.954;-9.002;2023-12-20T02:45:46;102220.25;;;13.75;100.00
50434;BME280;36361;38.954;-9.002;2023-12-20T02:46:47;102220.53;;;13.86;100.00
50434;BME280;36361;38.954;-9.002;2023-12-20T02:47:48;102219.25;;;13.82;100.00
50434;BME280;36361;38.954;-9.002;2023-12-20T02:48:49;102220.84;;;13.70;100.00
50434;BME280;36361;38.954;-9.002;2023-12-20T02:49:50;102219.63;;;13.79;100.00
50434;BME280;36361;38.954;-9.002;2023-12-20T02:50:51;102214.50;;;13.63;100.00
50434;BME280;36361;38.954;-9.002;2023-12-20T02:51:52;102211.94;;;13.61;100.00
50434;BME280;36361;38.954;-9.002;2023-12-20T02:52:52;102213.19;;;13.59;100.00
50434;BME280;36361;38.954;-9.002;2023-12-20T02:53:53;102206.97;;;13.72;100.00
50434;BME280;36361;38.954;-9.002;2023-12-20T02:54:54;102208.13;;;13.56;100.00
50434;BME280;36361;38.954;-9.002;2023-12-20T02:55:55;102208.78;;;13.36;100.00
50434;BME280;36361;38.954;-9.002;2023-12-20T02:56:56;102204.72;;;13.54;100.00
50434;BME280;36361;38.954;-9.002;2023-12-20T02:57:57;102201.09;;;13.25;100.00
50434;BME280;36361;38.954;-9.002;2023-12-20T02:58:58;102211.25;;;13.31;100.00
50434;BME280;36361;38.954;-9.002;2023-12-20T02:59:59;102212.09;;;13.32;100.00
50434;BME280;36361;38.954;-9.002;2023-12-20T03:00:59;102202.34;;;13.23;100.00
50434;BME280;36361;38.954;-9.002;2023-12-20T03:02:00;102208.09;;;13.13;100.00
50434;BME280;36361;38.954;-9.002;2023-12-20T03:03:01;102208.66;;;13.23;100.00
50434;BME280;36361;38.954;-9.002;2023-12-20T03:04:02;102205.59;;;12.97;100.00
50434;BME280;36361;38.954;-9.002;2023-12-20T03:05:03;102201.47;;;13.01;100.00
50434;BME280;36361;38.954;-9.002;2023-12-20T03:06:03;102210.97;;;13.05;100.00
50434;BME280;36361;38.954;-9.002;2023-12-20T03:07:04;102208.09;;;13.13;100.00
50434;BME280;36361;38.954;-9.002;2023-12-20T03:08:05;102204.44;;;13.21;100.00
50434;BME280;36361;38.954;-9.002;2023-12-20T03:09:06;102205.63;;;13.18;100.00
50434;BME280;36361;38.954;-9.002;2023-12-20T03:10:07;102201.09;;;13.25;100.00
50434;BME280;36361;38.954;-9.002;2023-12-20T03:11:09;102198.13;;;13.20;100.00
50434;BME280;36361;38.954;-9.002;2023-12-20T03:12:10;102191.88;;;13.26;100.00
50434;BME280;36361;38.954;-9.002;2023-12-20T03:13:11;102198.16;;;13.48;100.00
50434;BME280;36361;38.954;-9.002;2023-12-20T03:14:12;102183.63;;;13.48;100.00
50434;BME280;36361;38.954;-9.002;2023-12-20T03:15:12;102194.22;;;13.57;100.00
50434;BME280;36361;38.954;-9.002;2023-12-20T03:16:13;102192.19;;;13.66;100.00
50434;BME280;36361;38.954;-9.002;2023-12-20T03:17:16;102185.81;;;13.59;100.00
50434;BME280;36361;38.954;-9.002;2023-12-20T03:18:17;102189.81;;;13.56;100.00
50434;BME280;36361;38.954;-9.002;2023-12-20T03:19:18;102180.34;;;13.59;100.00
50434;BME280;36361;38.954;-9.002;2023-12-20T03:20:19;102183.50;;;13.56;100.00
50434;BME280;36361;38.954;-9.002;2023-12-20T03:21:20;102182.84;;;13.54;100.00
50434;BME280;36361;38.954;-9.002;2023-12-20T03:22:21;102182.84;;;13.54;100.00
50434;BME280;36361;38.954;-9.002;2023-12-20T03:23:22;102187.22;;;13.76;100.00
50434;BME280;36361;38.954;-9.002;2023-12-20T03:24:23;102181.06;;;13.68;100.00
50434;BME280;36361;38.954;-9.002;2023-12-20T03:25:23;102183.44;;;13.77;100.00
50434;BME280;36361;38.954;-9.002;2023-12-20T03:26:24;102176.34;;;13.89;100.00
50434;BME280;36361;38.954;-9.002;2023-12-20T03:27:28;102179.28;;;13.88;100.00
50434;BME280;36361;38.954;-9.002;2023-12-20T03:28:29;102179.78;;;13.70;100.00
50434;BME280;36361;38.954;-9.002;2023-12-20T03:29:30;102183.69;;;13.82;100.00
50434;BME280;36361;38.954;-9.002;2023-12-20T03:30:31;102184.22;;;13.71;100.00
50434;BME280;36361;38.954;-9.002;2023-12-20T03:31:31;102174.78;;;13.74;100.00
50434;BME280;36361;38.954;-9.002;2023-12-20T03:32:32;102173.97;;;13.52;100.00
50434;BME280;36361;38.954;-9.002;2023-12-20T03:33:33;102164.72;;;13.53;100.00
50434;BME280;36361;38.954;-9.002;2023-12-20T03:34:34;102171.94;;;13.60;100.00
50434;BME280;36361;38.954;-9.002;2023-12-20T03:35:34;102157.78;;;13.50;100.00
50434;BME280;36361;38.954;-9.002;2023-12-20T03:36:35;102159.22;;;13.46;100.00
50434;BME280;36361;38.954;-9.002;2023-12-20T03:37:36;102156.97;;;13.28;100.00
50434;BME280;36361;38.954;-9.002;2023-12-20T03:38:37;102156.91;;;13.22;100.00
50434;BME280;36361;38.954;-9.002;2023-12-20T03:39:38;102150.41;;;13.23;100.00
50434;BME280;36361;38.954;-9.002;2023-12-20T03:40:39;102148.50;;;13.23;100.00
50434;BME280;36361;38.954;-9.002;2023-12-20T03:41:40;102144.47;;;13.19;100.00
50434;BME280;36361;38.954;-9.002;2023-12-20T03:42:40;102155.00;;;13.01;100.00
50434;BME280;36361;38.954;-9.002;2023-12-20T03:43:41;102150.72;;;12.92;100.00
50434;BME280;36361;38.954;-9.002;2023-12-20T03:44:42;102153.31;;;13.00;100.00
50434;BME280;36361;38.954;-9.002;2023-12-20T03:45:43;102151.56;;;12.92;100.00
50434;BME280;36361;38.954;-9.002;2023-12-20T03:46:44;102143.81;;;12.96;100.00
50434;BME280;36361;38.954;-9.002;2023-12-20T03:47:46;102146.47;;;12.89;100.00
50434;BME280;36361;38.954;-9.002;2023-12-20T03:48:46;102140.31;;;13.02;100.00
50434;BME280;36361;38.954;-9.002;2023-12-20T03:49:47;102137.66;;;13.15;100.00
50434;BME280;36361;38.954;-9.002;2023-12-20T03:50:48;102140.03;;;13.18;100.00
50434;BME280;36361;38.954;-9.002;2023-12-20T03:51:49;102144.06;;;13.01;100.00
50434;BME280;36361;38.954;-9.002;2023-12-20T03:52:50;102141.59;;;13.06;100.00
50434;BME280;36361;38.954;-9.002;2023-12-20T03:53:50;102135.38;;;12.91;100.00
50434;BME280;36361;38.954;-9.002;2023-12-20T03:54:51;102134.69;;;13.10;100.00
50434;BME280;36361;38.954;-9.002;2023-12-20T03:55:52;102125.50;;;12.96;100.00
50434;BME280;36361;38.954;-9.002;2023-12-20T03:56:53;102124.31;;;12.99;100.00
50434;BME280;36361;38.954;-9.002;2023-12-20T03:57:54;102120.63;;;13.13;100.00
50434;BME280;36361;38.954;-9.002;2023-12-20T03:58:55;102127.22;;;13.19;100.00
50434;BME280;36361;38.954;-9.002;2023-12-20T03:59:55;102114.47;;;13.26;100.00
50434;BME280;36361;38.954;-9.002;2023-12-20T04:00:56;102126.19;;;13.20;100.00
50434;BME280;36361;38.954;-9.002;2023-12-20T04:01:57;102122.00;;;13.24;100.00
50434;BME280;36361;38.954;-9.002;2023-12-20T04:02:58;102122.22;;;13.22;100.00
50434;BME280;36361;38.954;-9.002;2023-12-20T04:03:58;102118.44;;;13.23;100.00
50434;BME280;36361;38.954;-9.002;2023-12-20T04:05:00;102125.53;;;13.18;100.00
50434;BME280;36361;38.954;-9.002;2023-12-20T04:06:00;102129.03;;;13.12;100.00
50434;BME280;36361;38.954;-9.002;2023-12-20T04:07:01;102129.09;;;13.18;100.00
50434;BME280;36361;38.954;-9.002;2023-12-20T04:08:02;102130.31;;;13.16;100.00
50434;BME280;36361;38.954;-9.002;2023-12-20T04:09:04;102132.59;;;13.33;100.00
50434;BME280;36361;38.954;-9.002;2023-12-20T04:10:05;102127.94;;;13.27;100.00
50434;BME280;36361;38.954;-9.002;2023-12-20T04:11:06;102136.81;;;13.15;100.00
50434;BME280;36361;38.954;-9.002;2023-12-20T04:12:07;102130.41;;;13.22;100.00
50434;BME280;36361;38.954;-9.002;2023-12-20T04:13:08;102134.06;;;13.29;100.00
50434;BME280;36361;38.954;-9.002;2023-12-20T04:14:09;102132.22;;;13.36;100.00
50434;BME280;36361;38.954;-9.002;2023-12-20T04:15:10;102128.22;;;13.67;100.00
50434;BME280;36361;38.954;-9.002;2023-12-20T04:16:12;102129.50;;;13.71;100.00
50434;BME280;36361;38.954;-9.002;2023-12-20T04:17:13;102122.50;;;13.62;100.00
50434;BME280;36361;38.954;-9.002;2023-12-20T04:18:16;102122.34;;;13.70;100.00
50434;BME280;36361;38.954;-9.002;2023-12-20T04:19:17;102124.91;;;13.78;100.00
50434;BME280;36361;38.954;-9.002;2023-12-20T04:20:18;102119.84;;;13.75;100.00
50434;BME280;36361;38.954;-9.002;2023-12-20T04:21:18;102116.50;;;13.73;100.00
50434;BME280;36361;38.954;-9.002;2023-12-20T04:22:19;102120.75;;;13.82;100.00
50434;BME280;36361;38.954;-9.002;2023-12-20T04:23:20;102116.56;;;13.86;100.00
50434;BME280;36361;38.954;-9.002;2023-12-20T04:24:21;102112.34;;;13.84;100.00
50434;BME280;36361;38.954;-9.002;2023-12-20T04:25:22;102107.72;;;13.84;100.00
50434;BME280;36361;38.954;-9.002;2023-12-20T04:26:23;102113.19;;;13.84;100.00
50434;BME280;36361;38.954;-9.002;2023-12-20T04:27:24;102107.28;;;13.87;100.00
50434;BME280;36361;38.954;-9.002;2023-12-20T04:28:25;102109.97;;;13.74;100.00
50434;BME280;36361;38.954;-9.002;2023-12-20T04:29:26;102107.72;;;13.84;100.00
50434;BME280;36361;38.954;-9.002;2023-12-20T04:30:26;102108.28;;;13.73;100.00
50434;BME280;36361;38.954;-9.002;2023-12-20T04:31:27;102102.22;;;13.84;100.00
50434;BME280;36361;38.954;-9.002;2023-12-20T04:32:28;102101.75;;;13.74;100.00
50434;BME280;36361;38.954;-9.002;2023-12-20T04:33:29;102091.88;;;13.80;100.00
50434;BME280;36361;38.954;-9.002;2023-12-20T04:34:30;102090.00;;;13.80;100.00
50434;BME280;36361;38.954;-9.002;2023-12-20T04:35:31;102083.66;;;13.73;100.00
50434;BME280;36361;38.954;-9.002;2023-12-20T04:36:31;102089.97;;;13.74;100.00
50434;BME280;36361;38.954;-9.002;2023-12-20T04:37:32;102087.41;;;13.65;100.00
50434;BME280;36361;38.954;-9.002;2023-12-20T04:38:33;102086.13;;;13.68;100.00
50434;BME280;36361;38.954;-9.002;2023-12-20T04:39:34;102084.03;;;13.70;100.00
50434;BME280;36361;38.954;-9.002;2023-12-20T04:40:35;102088.47;;;13.71;100.00
50434;BME280;36361;38.954;-9.002;2023-12-20T04:41:35;102085.78;;;13.78;100.00
50434;BME280;36361;38.954;-9.002;2023-12-20T04:42:36;102084.34;;;13.88;100.00
50434;BME280;36361;38.954;-9.002;2023-12-20T04:43:37;102085.44;;;13.94;100.00
50434;BME280;36361;38.954;-9.002;2023-12-20T04:44:38;102084.59;;;13.93;100.00
50434;BME280;36361;38.954;-9.002;2023-12-20T04:45:38;102084.13;;;13.83;100.00
50434;BME280;36361;38.954;-9.002;2023-12-20T04:46:39;102080.81;;;13.94;100.00
50434;BME280;36361;38.954;-9.002;2023-12-20T04:47:41;102075.34;;;13.94;100.00
50434;BME280;36361;38.954;-9.002;2023-12-20T04:48:42;102075.59;;;14.00;100.00
50434;BME280;36361;38.954;-9.002;2023-12-20T04:49:43;102080.81;;;13.94;100.00
50434;BME280;36361;38.954;-9.002;2023-12-20T04:50:44;102079.13;;;13.93;100.00
50434;BME280;36361;38.954;-9.002;2023-12-20T04:51:45;102075.00;;;14.11;100.00
50434;BME280;36361;38.954;-9.002;2023-12-20T04:52:45;102075.66;;;14.26;100.00
50434;BME280;36361;38.954;-9.002;2023-12-20T04:53:46;102071.69;;;14.35;100.00
50434;BME280;36361;38.954;-9.002;2023-12-20T04:54:47;102070.09;;;14.54;100.00
50434;BME280;36361;38.954;-9.002;2023-12-20T04:55:48;102071.97;;;14.54;100.00
50434;BME280;36361;38.954;-9.002;2023-12-20T04:56:49;102073.88;;;14.46;100.00
50434;BME280;36361;38.954;-9.002;2023-12-20T04:57:50;102078.44;;;14.39;100.00
50434;BME280;36361;38.954;-9.002;2023-12-20T04:58:51;102083.88;;;14.26;100.00
50434;BME280;36361;38.954;-9.002;2023-12-20T04:59:51;102083.25;;;14.31;100.00
50434;BME280;36361;38.954;-9.002;2023-12-20T05:00:52;102084.50;;;14.21;100.00
50434;BME280;36361;38.954;-9.002;2023-12-20T05:01:53;102091.28;;;14.32;100.00
50434;BME280;36361;38.954;-9.002;2023-12-20T05:02:54;102085.59;;;14.27;100.00
50434;BME280;36361;38.954;-9.002;2023-12-20T05:03:54;102090.16;;;14.13;100.00
50434;BME280;36361;38.954;-9.002;2023-12-20T05:04:55;102094.78;;;14.13;100.00
50434;BME280;36361;38.954;-9.002;2023-12-20T05:05:56;102085.09;;;14.17;100.00
50434;BME280;36361;38.954;-9.002;2023-12-20T05:06:57;102092.75;;;14.28;100.00
50434;BME280;36361;38.954;-9.002;2023-12-20T05:07:58;102090.81;;;14.22;100.00
50434;BME280;36361;38.954;-9.002;2023-12-20T05:08:59;102088.50;;;14.26;100.00
50434;BME280;36361;38.954;-9.002;2023-12-20T05:09:59;102090.56;;;14.17;100.00
50434;BME280;36361;38.954;-9.002;2023-12-20T05:11:00;102088.03;;;14.09;100.00